Marion, VA (24354)

6:34 PM EDT on September 21, 2014 (GMT -0400)
Smyth Weather | Change Station
CLOSE
Current Station
Personal Weather Station
Location: Marion, VA
Elevation: 2157 ft
Nearby Weather Stations

Elev 2157 ft 36.81 °N, 81.59 °W | Updated 6 seconds ago

Mostly Cloudy
Mostly Cloudy
68.9 °F
Feels Like 68.9 °F
N
2.3
Wind Variable Wind from SW
Gusts 2.3 mph

Today
High -- | Low -- °F
--% Chance of Precip.
Yesterday
High -- | Low -- °F
Precip. -- in
7:13 AM 7:24 PM
Waning Crescent, 5% visible
Pressure 29.92 in
Visibility 10.0 miles
Clouds Scattered Clouds 1900 ft
Scattered Clouds 11000 ft
Dew Point 64 °F
Humidity 86%
Rainfall 0.10 in
Snow Depth Not available.
UV 1 out of 12
Pollen 5.90 out of 12
Air Quality Not available.
Flu Activity Not available.
METAR KMKJ 212215Z AUTO 26014G21KT 10SM SCT019 SCT110 21/18 A2992 RMK AO2 LTG DSNT W T02070177

More Conditions Fewer Conditions

Pressure 29.92 in
Visibility 10.0 miles
Clouds Scattered Clouds 1900 ft
Scattered Clouds 11000 ft
Dew Point 64 °F
Humidity 86%
Rainfall 0.10 in
Snow Depth Not available.
UV 1 out of 12
Pollen 5.90 out of 12
Air Quality Not available.
Flu Activity Not available.
METAR KMKJ 212215Z AUTO 26014G21KT 10SM SCT019 SCT110 21/18 A2992 RMK AO2 LTG DSNT W T02070177

More Conditions Fewer Conditions

10-Day Weather Forecast

Almanac

Astronomy

Sep. 21, 2014 Rise Set
Actual Time 7:13 AM EDT 7:24 PM EDT
Civil Twilight 6:47 AM EDT 7:50 PM EDT
Nautical Twilight 6:17 AM EDT 8:20 PM EDT
Astronomical Twilight 5:46 AM EDT 8:51 PM EDT
Moon 4:48 AM EDT 5:57 PM EDT
Length of Visible Light 13h 03m
Length of Day
12h 11m
Tomorrow will be 2m 20s shorter.
Waning Crescent, 5% of the Moon is Illuminated
Today
Waning Crescent
Sep 24
New
Oct 1
First Quarter
Oct 8
Full
Oct 15
Last Quarter

Today's Extremes

State Highs State Lows

Community

WunderPhotos

Upload Photos

1,755,280 photos uploaded!

WunderBlogs® & News

Nearby

Snow Depth

Station Depth Elevation
No new snow has been reported.

Earthquake Activity

City Distance Mag. Time & Date
No recent earthquake activity has been reported nearby.
Minimum magnitude displayed is 2.5.

Coastal Water Temperatures

Place Temperature
No Stations Reporting

Nearby Weather Stations